x

Buoy B01 - Western Maine Shelf (44030) Wave Buoy

10:04 - Sun 19th Feb 2017 All times are EST. -5 hours from GMT.

  • Sig Wave height 0.7ft
  • Wind
    11mph, 13mph gusts
  • Sea Temp 39°f
  • Ar Temp 44°f
  • Sea Pressure 1010.9mb
  • Buoy B01 - Western Maine Shelf
  • Buoy B01 - Western Maine Shelf

More Historic Weather Station data

Upgrade to MSW Pro to gain access to the past 30 days of data for over 8000 Wavebouys and Weather Stations around the globe.

Join Pro

Comparision Forecast

View Surf forecast
   
Dom 02/19 10:04 0.7ft  -  11 13 mph 1010.9mb 39f 44f
9:04 1ft 2s 7 9 mph 1010.3mb 39f 44f
8:04 1.3ft 6s 13 16 mph 1009.4mb 39f 46f
7:04 1ft 3s 9 11 mph 1008.7mb 39f 44f
6:04 1.3ft 3s 16 20 mph 1007.8mb 39f 47f
5:04 2.5ft 4s 18 20 mph 1006.4mb 40f 48f
4:04 2.5ft 3s 20 22 mph 1005.3mb 40f 50f
3:04 2ft 6s 9 11 mph 1004.2mb 40f 49f
2:04 2.5ft 8s 13 16 mph 1003.2mb 40f 45f
1:04 2.5ft 11s 16
mph
1002.9mb 39f 44f
12:04 2ft 6s 11
mph
1003.5mb 39f 43f
11:04 2ft 5s 11 13 mph 1003.8mb 39f 44f
10:04 2ft 6s 11 13 mph 1004mb 39f 43f
9:04 2ft 5s 11 13 mph 1003.8mb 39f 44f
8:04 2.5ft 5s 11
mph
1003.4mb 39f 42f
7:04 2.5ft 6s 13 16 mph 1002.6mb 39f 43f
6:04 2.5ft 6s 18 20 mph 1001.7mb 39f 44f
5:04 2.5ft 6s 13 16 mph 1001.2mb 39f 43f
4:04 3.5ft 5s 16 18 mph 1000.3mb 39f 45f
3:04 3.5ft 6s 13 16 mph 999.6mb 39f 44f
2:04 3.5ft 5s 7
mph
999.2mb 39f 42f
1:04 3.5ft 5s 11 13 mph 998.7mb 39f 43f
12:04 3.5ft 6s 16 18 mph 998.1mb 40f 44f
Sáb 02/18 11:04 3.5ft 5s 18 22 mph 997.7mb 40f 44f
10:04 4ft 6s 18 20 mph 997.8mb 40f 44f
9:04 3.5ft 5s 22 25 mph 997.4mb 40f 43f
8:04 3.5ft 5s 18 20 mph 997.8mb 40f 43f
7:04 3.5ft 5s 22 25 mph 997.6mb 40f 44f
6:04 3ft 5s 16 18 mph 998.7mb 40f 43f
5:04 2.5ft 4s 13 18 mph 998.8mb 40f 43f
4:04 2.5ft 5s 11 13 mph 999.6mb 40f 43f
3:04 3ft 5s 11 13 mph 1000.5mb 40f 42f
2:04 3ft 4s 13 16 mph 1002mb 40f 41f
1:04 2.5ft 4s 18 20 mph 1002.4mb 40f 40f
12:04 2ft 4s 18 20 mph 1004.2mb 40f 39f
11:04 1.3ft 3s 13 18 mph 1005.7mb 40f 36f
10:04 2.5ft 11s 13 16 mph 1006.8mb 40f 36f
9:04  -   -  18 20 mph 1008.2mb 40f 34f
8:04 1.3ft 3s 16 18 mph 1008.2mb 40f 33f
7:04 1.6ft 11s 13 16 mph 1007.8mb 40f 33f
6:04  -   -  9 11 mph 1007.8mb 40f 33f
5:04 2ft 11s 13 16 mph 1008.2mb 40f 33f
4:04 1.3ft 3s 13 16 mph 1008.5mb 40f 32f
3:04 1.6ft 3s 16 20 mph 1008.3mb 40f 32f
2:04 1.3ft 3s 16 18 mph 1008.1mb 40f 32f
1:04 1ft 3s 16 20 mph 1007.8mb 40f 33f
12:04 1.6ft 3s 18 20 mph 1007.6mb 40f 33f
Sex 02/17 11:04 1.3ft 3s 16 18 mph 1007mb 40f 33f
10:04 1.6ft 3s 11 13 mph 1007mb 40f 33f
9:04 2ft 3s 20 22 mph 1006.7mb 40f 34f
8:04 2.5ft 3s 22 27 mph 1005.9mb 40f 35f
7:04 2.5ft 3s 22 25 mph 1005.3mb 40f 35f
6:04 2.5ft 3s 25 31 mph 1004.3mb 40f 36f
5:04 3ft 11s 22 25 mph 1003.6mb 40f 37f
4:04 2.5ft 3s 20 25 mph 1002.5mb 40f 38f
3:04 1.6ft 3s 18 22 mph 1002.1mb 40f 38f
2:04 2ft 3s 20 25 mph 1002mb 40f 36f
1:04 2.5ft 3s 18 22 mph 1002.1mb 40f 34f
12:04 2ft 3s 16 20 mph 1002.7mb 40f 32f
11:04 2.5ft 3s 18 22 mph 1003.1mb 40f 31f
10:04 2.5ft 3s 22 27 mph 1003.1mb 40f 29f
9:04 2.5ft 3s 22 27 mph 1002.7mb 40f 28f
8:04  -   -  25 29 mph 1002.3mb 40f 27f
7:04 3.5ft 11s 22 27 mph 1001.6mb 40f 27f
6:04 3.5ft 11s 22 27 mph 1000.9mb 40f 27f
5:04 2.5ft 3s 22 25 mph 1000.6mb 40f 28f
4:04 2.5ft 4s 25 29 mph 1000.2mb 40f 28f
3:04 2.5ft 4s 25 29 mph 999.9mb 40f 28f
2:04 4.5ft 11s 22 29 mph 999.9mb 40f 28f
1:04 2.5ft 3s 25 29 mph 999.5mb 40f 28f
12:04 4.5ft 11s 22 27 mph 999.9mb 40f 29f
Qui 02/16 11:04 3.5ft 4s 29 34 mph 999.3mb 40f 29f
10:04 4.5ft 11s 22 27 mph 999.5mb 40f 29f
9:04  -   -  22 29 mph 999.3mb 40f 30f
8:04 5ft 11s 22 27 mph 998.7mb 40f 30f
7:04 5.5ft 11s 22 25 mph 998mb 40f 31f
6:04 5ft 11s 22 29 mph 996.7mb 40f 32f
5:04 6ft 11s 25 34 mph 995.4mb 40f 33f
4:04 6ft 11s 25 29 mph 994.3mb 40f 34f
3:04 6ft 11s 20 29 mph 993.9mb 40f 33f
2:04 8ft 11s 18 25 mph 993.7mb 40f 33f
1:04 7ft 11s 18 22 mph 993.7mb 40f 31f
12:04 8ft 11s 18 22 mph 994.1mb 40f 31f
11:04 9ft 11s 13 18 mph 994.5mb 40f 30f
10:04 9ft 8s 9 11 mph 994.5mb 40f 29f
9:04 8.5ft 11s 9 11 mph 994.4mb 40f 28f
8:04 9ft 8s 16 18 mph 994mb 40f 27f
7:04 10ft 8s 20 25 mph 993.2mb 40f 27f
6:04 8ft 8s 27 29 mph 992.1mb 40f 27f
5:04 9ft 8s 22 25 mph 991.4mb 40f 28f